^^
Bauneg Beg-Weather Station Historical Data
 
Daily Summary for February 21, 2020 Units:  English    Metric   Both
Daily Weekly Monthly Yearly Custom
  Current: High: Low: Average:
Temperature: 17.4 °F 18.3 °F 4.1 °F 7.9 °F
Dew Point: -1.8 °F 0.7 °F -4.5 °F -2.7 °F
Humidity: 42% 72% 40% 62%
Wind Speed: 2.9mph 4.5mph 0mph 0.9mph
Wind Gust: 4.5mph 4.5mph - -
WindWest - - WSW
Pressure: 30.07 in 30.09 in 30.02 in -
Precipitation: 0 in      
Historical Graphs
 
 
Tabular Data for February 21, 2020
Time Temperature Dew Point Pressure Wind Wind Speed Wind Gust Humidity Rainfall Rate (Hourly) solar
00:00 10.2 °F 0.7 °F 30.02 in WSW 1.3 mph 2.2 mph 65% 0 in 0.00 W/m2
00:05 9.7 °F 0.5 °F 30.03 in WSW 1.1 mph 1.1 mph 66% 0 in 0.00 W/m2
00:10 9.5 °F -0.2 °F 30.02 in SW 0.2 mph 1.1 mph 64% 0 in 0.00 W/m2
00:15 9.5 °F -0.6 °F 30.02 in SW 0.9 mph 1.1 mph 63% 0 in 0.00 W/m2
00:20 9.7 °F -0 °F 30.03 in WSW 0.2 mph 1.1 mph 64% 0 in 0.00 W/m2
00:25 9.1 °F -0.2 °F 30.02 in Calm     65% 0 in 0.00 W/m2
00:30 9 °F -0.2 °F 30.03 in WSW 1.1 mph 1.1 mph 66% 0 in 0.00 W/m2
00:35 9.3 °F -0.8 °F 30.03 in WSW 0.2 mph 1.1 mph 63% 0 in 0.00 W/m2
00:40 9.3 °F -1.1 °F 30.04 in Calm     62% 0 in 0.00 W/m2
00:45 9 °F -1.5 °F 30.03 in WNW 4 mph 4.5 mph 62% 0 in 0.00 W/m2
00:50 9.9 °F -1.7 °F 30.03 in West 2.5 mph 3.4 mph 59% 0 in 0.00 W/m2
00:55 9.7 °F -1.5 °F 30.03 in West 0.9 mph 1.1 mph 60% 0 in 0.00 W/m2
01:00 9.3 °F -1.5 °F 30.03 in WSW 1.1 mph 1.1 mph 61% 0 in 0.00 W/m2
01:05 9.1 °F -1.3 °F 30.03 in Calm     62% 0 in 0.00 W/m2
01:10 8.6 °F -1.1 °F 30.04 in Calm     64% 0 in 0.00 W/m2
01:15 8.2 °F -1.5 °F 30.03 in West 1.1 mph 1.1 mph 64% 0 in 0.00 W/m2
01:20 8.6 °F -2.6 °F 30.03 in West 0.9 mph 1.1 mph 60% 0 in 0.00 W/m2
01:25 8.8 °F -2.4 °F 30.04 in Calm     60% 0 in 0.00 W/m2
01:30 8.4 °F -2.7 °F 30.04 in WNW 0.4 mph 1.1 mph 60% 0 in 0.00 W/m2
01:35 8.4 °F -2.7 °F 30.04 in WNW 2 mph 2.2 mph 60% 0 in 0.00 W/m2
01:40 8.2 °F -2.6 °F 30.03 in West 2.2 mph 2.2 mph 61% 0 in 0.00 W/m2
01:45 8.2 °F -2.2 °F 30.03 in Calm     62% 0 in 0.00 W/m2
01:50 7.5 °F -2.2 °F 30.04 in West 0.9 mph 1.1 mph 64% 0 in 0.00 W/m2
01:55 7.2 °F -1.8 °F 30.04 in West 1.8 mph 2.2 mph 66% 0 in 0.00 W/m2
02:00 7.7 °F -2.4 °F 30.04 in NW 0.7 mph 1.1 mph 63% 0 in 0.00 W/m2
02:05 7.7 °F -1.7 °F 30.04 in West 1.3 mph 2.2 mph 65% 0 in 0.00 W/m2
02:10 7.2 °F -2.6 °F 30.04 in West 3.4 mph 3.4 mph 64% 0 in 0.00 W/m2
02:15 8.1 °F -3.3 °F 30.04 in West 1.3 mph 2.2 mph 59% 0 in 0.00 W/m2
02:20 8.4 °F -2.4 °F 30.04 in West 1.6 mph 2.2 mph 61% 0 in 0.00 W/m2
02:25 7.9 °F -2.6 °F 30.04 in West 1.1 mph 1.1 mph 62% 0 in 0.00 W/m2
02:30 7.9 °F -2.9 °F 30.03 in West 1.6 mph 2.2 mph 61% 0 in 0.00 W/m2
02:35 7.5 °F -2.6 °F 30.05 in Calm     63% 0 in 0.00 W/m2
02:40 7 °F -2.7 °F 30.04 in West 2.2 mph 2.2 mph 64% 0 in 0.00 W/m2
02:45 7 °F -2.7 °F 30.04 in West 1.6 mph 2.2 mph 64% 0 in 0.00 W/m2
02:50 6.6 °F -2.7 °F 30.04 in WSW 0.2 mph 1.1 mph 65% 0 in 0.00 W/m2
02:55 6.1 °F -2.6 °F 30.04 in WSW 0.2 mph 1.1 mph 67% 0 in 0.00 W/m2
03:00 5.2 °F -2.9 °F 30.04 in Calm     69% 0 in 0.00 W/m2
03:05 4.5 °F -3.5 °F 30.05 in Calm     69% 0 in 0.00 W/m2
03:10 4.3 °F -3.5 °F 30.05 in Calm     70% 0 in 0.00 W/m2
03:15 4.3 °F -3.5 °F 30.05 in Calm     70% 0 in 0.00 W/m2
03:20 4.1 °F -3.3 °F 30.05 in WSW 1.1 mph 1.1 mph 71% 0 in 0.00 W/m2
03:25 4.3 °F -2.9 °F 30.06 in WSW 1.8 mph 2.2 mph 72% 0 in 0.00 W/m2
03:30 4.8 °F -3.3 °F 30.05 in West 0.2 mph 1.1 mph 69% 0 in 0.00 W/m2
03:35 4.8 °F -3.8 °F 30.05 in West 1.8 mph 2.2 mph 67% 0 in 0.00 W/m2
03:40 4.8 °F -3.8 °F 30.06 in West 0.9 mph 1.1 mph 67% 0 in 0.00 W/m2
03:45 4.6 °F -3.3 °F 30.06 in West 1.1 mph 1.1 mph 69% 0 in 0.00 W/m2
03:50 4.1 °F -3.8 °F 30.06 in West 0.7 mph 1.1 mph 69% 0 in 0.00 W/m2
03:55 4.5 °F -4.2 °F 30.05 in Calm     67% 0 in 0.00 W/m2
04:00 4.6 °F -4 °F 30.06 in West 0.4 mph 1.1 mph 67% 0 in 0.00 W/m2
04:05 4.5 °F -4.4 °F 30.06 in Calm     66% 0 in 0.00 W/m2
04:10 4.5 °F -3.5 °F 30.06 in West 0.7 mph 1.1 mph 69% 0 in 0.00 W/m2
04:15 4.6 °F -3.3 °F 30.07 in West 1.1 mph 1.1 mph 69% 0 in 0.00 W/m2
04:20 5.2 °F -3.1 °F 30.06 in West 0.9 mph 1.1 mph 68% 0 in 0.00 W/m2
04:25 5 °F -3.1 °F 30.05 in West 0.7 mph 1.1 mph 69% 0 in 0.00 W/m2
04:30 5.2 °F -3.8 °F 30.05 in West 0.7 mph 1.1 mph 66% 0 in 0.00 W/m2
04:35 5.4 °F -3.3 °F 30.05 in West 1.1 mph 1.1 mph 67% 0 in 0.00 W/m2
04:40 5.5 °F -3.8 °F 30.04 in Calm     65% 0 in 0.00 W/m2
04:45 5.5 °F -3.1 °F 30.05 in West 1.1 mph 1.1 mph 67% 0 in 0.00 W/m2
04:50 5.5 °F -3.1 °F 30.05 in West 1.1 mph 1.1 mph 67% 0 in 0.00 W/m2
04:55 5.5 °F -2.7 °F 30.05 in West 0.7 mph 1.1 mph 68% 0 in 0.00 W/m2
05:00 5.4 °F -3.3 °F 30.05 in Calm     67% 0 in 0.00 W/m2
05:05 5.2 °F -3.1 °F 30.05 in West 0.9 mph 1.1 mph 68% 0 in 0.00 W/m2
05:10 5.2 °F -3.1 °F 30.05 in West 0.9 mph 1.1 mph 68% 0 in 0.00 W/m2
05:15 5.5 °F -2.7 °F 30.05 in West 1.1 mph 1.1 mph 68% 0 in 0.00 W/m2
05:20 5.5 °F -3.1 °F 30.05 in West 1.1 mph 1.1 mph 67% 0 in 0.00 W/m2
05:25 5.2 °F -3.1 °F 30.04 in West 1.1 mph 1.1 mph 68% 0 in 0.00 W/m2
05:30 5 °F -3.1 °F 30.04 in West 1.1 mph 1.1 mph 69% 0 in 0.00 W/m2
05:35 4.8 °F -3.3 °F 30.05 in West 1.1 mph 1.1 mph 69% 0 in 0.00 W/m2
05:40 5.2 °F -3.1 °F 30.05 in West 1.1 mph 1.1 mph 68% 0 in 0.00 W/m2
05:45 5.2 °F -2.9 °F 30.06 in West 1.1 mph 1.1 mph 69% 0 in 0.00 W/m2
05:50 5.4 °F -2.9 °F 30.06 in West 1.1 mph 1.1 mph 68% 0 in 0.00 W/m2
05:55 5.5 °F -2.7 °F 30.04 in West 0.9 mph 1.1 mph 68% 0 in 0.00 W/m2
06:00 5.9 °F -3.1 °F 30.04 in Calm     66% 0 in 0.00 W/m2
06:05 5.4 °F -2.7 °F 30.05 in Calm     69% 0 in 0.00 W/m2
06:10 4.1 °F -3.3 °F 30.05 in WSW 1.1 mph 1.1 mph 71% 0 in 0.00 W/m2
06:15 4.3 °F -3.5 °F 30.05 in Calm     70% 0 in 0.00 W/m2
06:20 4.1 °F -3.6 °F 30.05 in WSW 1.1 mph 1.1 mph 70% 0 in 0.00 W/m2
06:25 4.5 °F -3.5 °F 30.06 in WSW 1.1 mph 1.1 mph 69% 0 in 0.36 W/m2
06:30 4.6 °F -3.6 °F 30.05 in WSW 0.2 mph 1.1 mph 68% 0 in 2.57 W/m2
06:35 4.6 °F -3.3 °F 30.06 in WSW 0.2 mph 1.1 mph 69% 0 in 4.28 W/m2
06:40 4.6 °F -3.3 °F 30.05 in WSW 0.2 mph 1.1 mph 69% 0 in 6.48 W/m2
06:45 4.8 °F -3.5 °F 30.06 in WSW 1.1 mph 1.1 mph 68% 0 in 9.54 W/m2
06:50 5 °F -3.6 °F 30.06 in WSW 0.4 mph 1.1 mph 67% 0 in 13.33 W/m2
06:55 5.2 °F -3.5 °F 30.06 in WSW 0.4 mph 1.1 mph 67% 0 in 17.25 W/m2
07:00 5.2 °F -3.8 °F 30.06 in WSW 0.9 mph 1.1 mph 66% 0 in 19.94 W/m2
07:05 5.5 °F -3.5 °F 30.07 in WSW 0.9 mph 1.1 mph 66% 0 in 24.22 W/m2
07:10 5.7 °F -3.3 °F 30.06 in Calm     66% 0 in 26.79 W/m2
07:15 6.1 °F -3.6 °F 30.07 in Calm     64% 0 in 30.70 W/m2
07:20 6.1 °F -3.3 °F 30.07 in WSW 0.2 mph 1.1 mph 65% 0 in 33.39 W/m2
07:25 7 °F -3.1 °F 30.06 in Calm     63% 0 in 36.33 W/m2
07:30 7.7 °F -2.4 °F 30.07 in Calm     63% 0 in 38.53 W/m2
07:35 7.9 °F -3.5 °F 30.07 in WSW 0.7 mph 1.1 mph 59% 0 in 41.10 W/m2
07:40 7.9 °F -4 °F 30.07 in West 0.2 mph 1.1 mph 58% 0 in 43.31 W/m2
07:45 8.1 °F -3.8 °F 30.07 in WNW 0.9 mph 1.1 mph 58% 0 in 53.34 W/m2
07:50 8.1 °F -3.8 °F 30.07 in Calm     58% 0 in 58.48 W/m2
07:55 8.2 °F -4.4 °F 30.07 in West 0.2 mph 1.1 mph 56% 0 in 48.93 W/m2
08:00 8.6 °F -4 °F 30.07 in West 1.1 mph 1.1 mph 56% 0 in 52.48 W/m2
08:05 9.5 °F -3.8 °F 30.07 in West 0.2 mph 1.1 mph 54% 0 in 66.31 W/m2
08:10 10.2 °F -3.3 °F 30.07 in Calm     54% 0 in 150.47 W/m2
08:15 11.1 °F -2.7 °F 30.07 in WNW 1.8 mph 2.2 mph 53% 0 in 163.44 W/m2
08:20 12 °F -1.8 °F 30.08 in Calm     53% 0 in 190.84 W/m2
08:25 12.9 °F -1.8 °F 30.09 in Calm     51% 0 in 204.30 W/m2
08:30 13.1 °F -1.7 °F 30.08 in Calm     51% 0 in 215.92 W/m2
08:35 14.7 °F -1.5 °F 30.08 in East 2.2 mph 3.4 mph 48% 0 in 229.87 W/m2
08:40 14.2 °F -2.4 °F 30.08 in WSW 0.7 mph 1.1 mph 47% 0 in 244.67 W/m2
08:45 14 °F -2.2 °F 30.08 in SSW 0.2 mph 1.1 mph 48% 0 in 254.58 W/m2
08:50 15.6 °F -1.1 °F 30.08 in WSW 2.9 mph 3.4 mph 47% 0 in 270.61 W/m2
08:55 13.8 °F -3.1 °F 30.07 in SW 0.9 mph 1.1 mph 46% 0 in 283.20 W/m2
09:00 15.1 °F -2.6 °F 30.07 in Calm     45% 0 in 293.24 W/m2
09:05 15.8 °F -1.3 °F 30.08 in SW 1.3 mph 2.2 mph 46% 0 in 304.49 W/m2
09:10 16.5 °F -3.6 °F 30.08 in SW 1.8 mph 2.2 mph 40% 0 in 307.06 W/m2
09:15 15.8 °F -2.7 °F 30.08 in SSW 2.5 mph 3.4 mph 43% 0 in 323.09 W/m2
09:20 16 °F -3.1 °F 30.08 in West 4.5 mph 4.5 mph 42% 0 in 334.47 W/m2
09:25 14.9 °F -4.5 °F 30.07 in WNW 2.2 mph 3.4 mph 41% 0 in 342.17 W/m2
09:30 15.4 °F -3.6 °F 30.08 in Calm     42% 0 in 355.63 W/m2
09:35 16.7 °F -2.4 °F 30.08 in SSW 0.9 mph 1.1 mph 42% 0 in 366.52 W/m2
09:40 18.3 °F -1.5 °F 30.07 in SE 3.6 mph 4.5 mph 41% 0 in 365.17 W/m2
09:45 17.4 °F -1.8 °F 30.07 in West 2.9 mph 4.5 mph 42% 0 in 382.18 W/m2
MaineWeather, Bauneg Beg
Compliments of Weather Underground - 4 mb